Time;durP1;ratioP1;P1;durP2;ratioP2;P2;SDS_P1;SDS_P2;PMS_P1;PMS_P2;Temp;Humidity;BMP_temperature;BMP_pressure;BME280_temperature;BME280_humidity;BME280_pressure;Samples;Min_cycle;Max_cycle;Signal;HPM_P1;HPM_P2
2022/07/03 00:01:58;;;;;;;;;;;;;;;26.17;60.23;101692.22;5033214;28;19908;-84
2022/07/03 00:04:23;;;;;;;;;;;;;;;26.17;60.54;101683.28;5049914;28;19951;-84
2022/07/03 00:06:49;;;;;;;;;;;;;;;26.18;60.45;101685.06;5051302;28;19908;-84
2022/07/03 00:09:14;;;;;;;;;;;;;;;26.15;60.21;101675.25;5031575;28;19982;-83
2022/07/03 00:11:40;;;;;;;;;;;;;;;26.19;60.00;101677.06;5032067;28;19912;-84
2022/07/03 00:14:05;;;;;;;;;;;;;;;26.19;60.19;101677.06;5050968;28;20265;-84
2022/07/03 00:16:31;;;;;;;;;;;;;;;26.19;60.39;101678.84;5031932;28;19916;-83
2022/07/03 00:18:56;;;;;;;;;;;;;;;26.16;60.13;101681.50;5050819;28;19909;-83
2022/07/03 00:21:27;;;;;;;;;;;;;;;26.15;60.52;101687.75;5031778;28;19962;-83
2022/07/03 00:23:54;;;;;;;;;;;;;;;26.14;60.58;101680.59;5045777;28;19909;-83
2022/07/03 00:26:20;;;;;;;;;;;;;;;26.14;60.61;101672.56;5034065;28;19917;-84
2022/07/03 00:28:45;;;;;;;;;;;;;;;26.14;60.73;101675.22;5040778;28;20007;-83
2022/07/03 00:31:11;;;;;;;;;;;;;;;26.14;60.70;101675.22;5050556;28;19920;-83
2022/07/03 00:33:37;;;;;;;;;;;;;;;26.14;60.24;101677.91;5044437;28;20384;-83
2022/07/03 00:36:02;;;;;;;;;;;;;;;26.13;60.69;101677.03;5049268;28;19919;-83
2022/07/03 00:38:28;;;;;;;;;;;;;;;26.14;60.43;101669.88;5031169;28;20465;-83
2022/07/03 00:40:53;;;;;;;;;;;;;;;26.12;60.07;101666.31;5050844;28;19958;-83
2022/07/03 00:43:20;;;;;;;;;;;;;;;26.11;60.40;101668.09;5032939;28;20426;-83
2022/07/03 00:45:49;;;;;;;;;;;;;;;26.12;60.13;101663.63;5049930;28;19919;-83
2022/07/03 00:48:16;;;;;;;;;;;;;;;26.11;60.31;101667.19;5034759;28;19939;-83
2022/07/03 00:50:45;;;;;;;;;;;;;;;26.10;59.95;101652.00;5036084;28;19913;-83
2022/07/03 00:53:11;;;;;;;;;;;;;;;26.12;59.94;101652.91;5046075;28;19987;-83
2022/07/03 00:55:37;;;;;;;;;;;;;;;26.10;60.24;101660.97;5036688;28;19920;-83
2022/07/03 00:58:02;;;;;;;;;;;;;;;26.11;60.07;101662.75;5036415;28;19909;-83
2022/07/03 01:00:28;;;;;;;;;;;;;;;26.10;60.09;101658.28;5036431;28;20410;-82
2022/07/03 01:02:54;;;;;;;;;;;;;;;26.08;60.03;101653.81;5051940;28;19909;-82
2022/07/03 01:05:20;;;;;;;;;;;;;;;26.07;60.00;101657.38;5036109;28;19924;-82
2022/07/03 01:07:45;;;;;;;;;;;;;;;26.07;59.92;101652.91;5035897;28;20591;-83
2022/07/03 01:10:29;;;;;;;;;;;;;;;26.10;59.62;101662.72;5050052;28;20372;-83
2022/07/03 01:12:56;;;;;;;;;;;;;;;26.05;60.36;101649.31;5041806;28;21389;-83
2022/07/03 01:15:37;;;;;;;;;;;;;;;26.09;59.51;101656.47;5024578;28;19913;-83
2022/07/03 01:18:14;;;;;;;;;;;;;;;26.06;60.01;101650.25;5047596;28;19932;-83
2022/07/03 01:20:39;;;;;;;;;;;;;;;26.05;59.97;101646.66;5040019;28;19909;-83
2022/07/03 01:23:06;;;;;;;;;;;;;;;26.05;59.98;101641.28;5041047;28;19909;-83
2022/07/03 01:25:38;;;;;;;;;;;;;;;26.04;59.82;101639.53;5050411;28;19913;-83
2022/07/03 01:28:07;;;;;;;;;;;;;;;26.04;59.68;101639.53;5025150;28;19909;-83
2022/07/03 01:30:34;;;;;;;;;;;;;;;26.04;59.97;101644.88;5049518;28;20355;-83
2022/07/03 01:33:02;;;;;;;;;;;;;;;26.03;59.83;101647.53;5052016;28;20344;-83
2022/07/03 01:35:32;;;;;;;;;;;;;;;26.05;59.72;101635.94;5035520;28;19913;-83
2022/07/03 01:37:57;;;;;;;;;;;;;;;26.03;59.62;101636.81;5053543;28;19917;-83
2022/07/03 01:40:23;;;;;;;;;;;;;;;26.00;59.88;101641.28;5018496;28;19920;-83
2022/07/03 01:42:48;;;;;;;;;;;;;;;26.00;59.84;101643.06;5029630;28;19942;-83
2022/07/03 01:45:14;;;;;;;;;;;;;;;25.99;59.99;101646.63;5041225;28;19913;-83
2022/07/03 01:47:41;;;;;;;;;;;;;;;25.99;59.81;101636.84;5050798;28;19912;-83
2022/07/03 01:50:07;;;;;;;;;;;;;;;25.98;59.66;101642.16;5035822;28;19982;-82
2022/07/03 01:52:32;;;;;;;;;;;;;;;25.96;60.03;101644.81;5046619;28;20339;-82
2022/07/03 01:54:59;;;;;;;;;;;;;;;25.96;60.37;101649.28;5053332;28;20433;-83
2022/07/03 01:57:24;;;;;;;;;;;;;;;25.97;60.01;101649.31;5033666;28;20399;-83
2022/07/03 01:59:50;;;;;;;;;;;;;;;25.98;60.18;101648.41;5038197;28;19947;-84
2022/07/03 02:02:25;;;;;;;;;;;;;;;25.95;60.26;101648.41;5051893;28;19908;-84
2022/07/03 02:05:06;;;;;;;;;;;;;;;25.97;59.64;101648.38;5035020;28;19917;-83
2022/07/03 02:07:32;;;;;;;;;;;;;;;25.95;59.86;101658.19;5034982;28;19909;-84
2022/07/03 02:10:00;;;;;;;;;;;;;;;25.94;59.80;101651.97;5034615;28;20019;-84
2022/07/03 02:12:27;;;;;;;;;;;;;;;25.93;59.74;101649.25;5051576;28;20327;-84
2022/07/03 02:14:54;;;;;;;;;;;;;;;25.93;59.39;101642.16;5018191;28;19913;-84
2022/07/03 02:17:20;;;;;;;;;;;;;;;25.91;60.13;101651.06;5035098;28;19920;-84
2022/07/03 02:19:52;;;;;;;;;;;;;;;25.94;59.79;101651.97;5038575;28;19909;-84
2022/07/03 02:22:18;;;;;;;;;;;;;;;25.92;59.45;101647.50;5056925;28;19936;-85
2022/07/03 02:24:51;;;;;;;;;;;;;;;25.93;59.50;101649.25;5046938;28;19912;-85
2022/07/03 02:27:17;;;;;;;;;;;;;;;25.93;59.76;101652.84;5057868;28;19917;-85
2022/07/03 02:29:46;;;;;;;;;;;;;;;25.91;59.77;101651.97;5061557;28;19947;-85
2022/07/03 02:32:12;;;;;;;;;;;;;;;25.88;59.87;101649.22;5043693;28;19917;-84
2022/07/03 02:34:38;;;;;;;;;;;;;;;25.89;60.08;101648.38;5024258;28;19944;-84
2022/07/03 02:37:11;;;;;;;;;;;;;;;25.87;59.99;101650.13;5049937;28;19912;-84
2022/07/03 02:40:12;;;;;;;;;;;;;;;25.86;59.69;101653.66;5035025;28;20399;-84
2022/07/03 02:42:56;;;;;;;;;;;;;;;25.86;60.09;101647.44;5008845;28;19913;-85
2022/07/03 02:45:21;;;;;;;;;;;;;;;25.87;59.94;101652.78;5042486;28;19916;-84
2022/07/03 02:47:48;;;;;;;;;;;;;;;25.86;59.61;101650.09;5017759;28;19968;-84
2022/07/03 02:50:20;;;;;;;;;;;;;;;25.86;59.34;101648.31;5016976;28;19908;-84
2022/07/03 02:52:49;;;;;;;;;;;;;;;25.84;59.43;101651.88;5021194;28;19920;-84
2022/07/03 02:55:17;;;;;;;;;;;;;;;25.84;59.60;101649.19;5052065;28;20285;-84
2022/07/03 02:57:43;;;;;;;;;;;;;;;25.81;59.89;101660.78;5050650;28;20009;-83
2022/07/03 03:00:09;;;;;;;;;;;;;;;25.81;59.78;101647.41;5017237;28;20368;-84
2022/07/03 03:02:47;;;;;;;;;;;;;;;25.83;59.41;101655.44;5033975;28;20319;-83
2022/07/03 03:05:16;;;;;;;;;;;;;;;25.82;59.50;101659.00;5051767;28;19999;-83
2022/07/03 03:07:45;;;;;;;;;;;;;;;25.82;59.66;101656.31;5032641;28;19913;-83
2022/07/03 03:10:10;;;;;;;;;;;;;;;25.82;59.67;101656.31;5050011;28;20379;-84
2022/07/03 03:12:36;;;;;;;;;;;;;;;25.83;59.42;101656.34;5051934;28;19934;-84
2022/07/03 03:15:03;;;;;;;;;;;;;;;25.81;59.66;101660.78;5017302;28;20384;-85
2022/07/03 03:17:29;;;;;;;;;;;;;;;25.78;59.77;101658.06;5031687;28;19919;-85
2022/07/03 03:19:55;;;;;;;;;;;;;;;25.77;59.95;101656.31;5016835;28;20320;-84
2022/07/03 03:22:28;;;;;;;;;;;;;;;25.76;59.79;101658.09;5033690;28;20383;-84
2022/07/03 03:24:53;;;;;;;;;;;;;;;25.76;59.86;101649.16;5033910;28;19978;-84
2022/07/03 03:27:18;;;;;;;;;;;;;;;25.77;59.58;101656.31;5050307;28;20358;-84
2022/07/03 03:29:44;;;;;;;;;;;;;;;25.76;59.84;101654.50;5033938;28;19920;-84
2022/07/03 03:32:10;;;;;;;;;;;;;;;25.77;59.66;101653.63;5033070;28;19926;-85
2022/07/03 03:34:36;;;;;;;;;;;;;;;25.74;59.54;101662.53;5016783;28;19916;-84
2022/07/03 03:37:01;;;;;;;;;;;;;;;25.73;59.97;101662.53;5031830;28;19913;-84
2022/07/03 03:39:27;;;;;;;;;;;;;;;25.74;59.83;101664.31;5033625;28;19913;-84
2022/07/03 03:41:52;;;;;;;;;;;;;;;25.73;60.07;101662.53;5033664;28;20364;-84
2022/07/03 03:44:17;;;;;;;;;;;;;;;25.71;60.14;101657.16;5032828;28;19909;-85
2022/07/03 03:46:43;;;;;;;;;;;;;;;25.72;60.21;101658.06;5051456;28;20004;-85
2022/07/03 03:49:08;;;;;;;;;;;;;;;25.72;60.32;101663.41;5033359;28;20310;-85
2022/07/03 03:51:34;;;;;;;;;;;;;;;25.73;60.11;101660.72;5043690;28;19980;-84
2022/07/03 03:53:59;;;;;;;;;;;;;;;25.73;59.82;101660.72;5046878;28;19920;-84
2022/07/03 03:56:25;;;;;;;;;;;;;;;25.71;60.28;101662.50;5050300;28;19913;-85
2022/07/03 03:58:50;;;;;;;;;;;;;;;25.72;60.55;101661.63;5033193;28;19920;-84
2022/07/03 04:01:16;;;;;;;;;;;;;;;25.71;60.32;101669.66;5050985;28;19932;-84
2022/07/03 04:03:41;;;;;;;;;;;;;;;25.71;60.17;101662.50;5051493;28;19956;-84
2022/07/03 04:06:07;;;;;;;;;;;;;;;25.72;60.06;101661.63;5050011;28;20311;-83
2022/07/03 04:08:32;;;;;;;;;;;;;;;25.68;60.07;101664.28;5054608;28;19962;-84
2022/07/03 04:10:57;;;;;;;;;;;;;;;25.67;60.28;101668.72;5022529;28;19913;-84
2022/07/03 04:13:23;;;;;;;;;;;;;;;25.67;60.09;101670.50;5033565;28;19952;-84
2022/07/03 04:15:49;;;;;;;;;;;;;;;25.67;60.32;101659.81;5032345;28;19920;-84
2022/07/03 04:18:14;;;;;;;;;;;;;;;25.67;60.48;101663.38;5030777;28;19909;-85
2022/07/03 04:20:40;;;;;;;;;;;;;;;25.65;60.58;101667.81;5039637;28;19913;-84
2022/07/03 04:23:05;;;;;;;;;;;;;;;25.66;60.24;101674.97;5052313;28;19913;-83
2022/07/03 04:25:31;;;;;;;;;;;;;;;25.68;60.71;101667.84;5040707;28;19913;-83
2022/07/03 04:27:56;;;;;;;;;;;;;;;25.63;60.53;101671.38;5037412;28;20372;-82
2022/07/03 04:30:22;;;;;;;;;;;;;;;25.63;60.52;101671.38;5054522;28;20359;-83
2022/07/03 04:32:48;;;;;;;;;;;;;;;25.62;60.68;101670.47;5037027;28;19912;-82
2022/07/03 04:35:13;;;;;;;;;;;;;;;25.62;60.86;101669.59;5034014;28;19919;-83
2022/07/03 04:37:39;;;;;;;;;;;;;;;25.62;60.83;101666.94;5042953;28;19917;-83
2022/07/03 04:40:05;;;;;;;;;;;;;;;25.60;61.21;101672.25;5053768;28;19978;-82
2022/07/03 04:42:30;;;;;;;;;;;;;;;25.62;60.89;101678.50;5036661;28;19920;-83
2022/07/03 04:44:56;;;;;;;;;;;;;;;25.63;61.06;101679.41;5024888;28;19909;-82
2022/07/03 04:47:21;;;;;;;;;;;;;;;25.60;60.90;101678.50;5053680;28;19931;-82
2022/07/03 04:49:46;;;;;;;;;;;;;;;25.61;61.18;101676.72;5034888;28;19916;-83
2022/07/03 04:52:12;;;;;;;;;;;;;;;25.62;61.58;101674.94;5034227;28;19960;-84
2022/07/03 04:54:37;;;;;;;;;;;;;;;25.57;61.39;101680.28;5049309;28;19909;-84
2022/07/03 04:57:03;;;;;;;;;;;;;;;25.57;61.60;101682.94;5030436;28;20350;-84
2022/07/03 04:59:29;;;;;;;;;;;;;;;25.51;61.80;101677.56;5025549;28;19916;-84
2022/07/03 05:01:54;;;;;;;;;;;;;;;25.53;61.85;101679.34;5054166;28;19970;-83
2022/07/03 05:04:20;;;;;;;;;;;;;;;25.49;62.06;101673.97;5038329;28;19913;-83
2022/07/03 05:06:45;;;;;;;;;;;;;;;25.51;62.00;101675.78;5043824;28;19978;-84
2022/07/03 05:09:11;;;;;;;;;;;;;;;25.47;62.46;101679.31;5017889;28;19963;-83
2022/07/03 05:11:36;;;;;;;;;;;;;;;25.45;62.56;101677.50;5042428;28;19909;-83
2022/07/03 05:14:02;;;;;;;;;;;;;;;25.44;62.42;101673.91;5036227;28;19909;-83
2022/07/03 05:16:28;;;;;;;;;;;;;;;25.44;62.64;101681.94;5053795;28;19908;-83
2022/07/03 05:18:53;;;;;;;;;;;;;;;25.45;62.76;101683.75;5028611;28;19909;-84
2022/07/03 05:21:19;;;;;;;;;;;;;;;25.44;62.88;101679.25;5046535;28;19931;-83
2022/07/03 05:23:44;;;;;;;;;;;;;;;25.45;62.85;101682.84;5015020;28;19916;-83
2022/07/03 05:26:09;;;;;;;;;;;;;;;25.42;63.15;101688.16;5028725;28;19913;-84
2022/07/03 05:28:35;;;;;;;;;;;;;;;25.43;62.79;101684.63;5038434;28;20308;-84
2022/07/03 05:31:00;;;;;;;;;;;;;;;25.40;62.95;101685.50;5028179;28;19959;-83
2022/07/03 05:33:26;;;;;;;;;;;;;;;25.44;63.15;101686.41;5049989;28;19909;-84
2022/07/03 05:35:51;;;;;;;;;;;;;;;25.48;63.20;101683.75;5035055;28;19908;-83
2022/07/03 05:39:31;;;;;;;;;;;;;;;25.61;62.50;101684.72;5035476;28;19917;-84
2022/07/03 05:41:02;;;;;;;;;;;;;;;25.62;62.54;101685.66;5052728;28;19923;-83
2022/07/03 05:43:27;;;;;;;;;;;;;;;25.66;62.60;101692.81;5045680;28;20396;-85
2022/07/03 05:45:53;;;;;;;;;;;;;;;25.66;62.64;101690.13;5034328;28;19913;-83
2022/07/03 05:48:18;;;;;;;;;;;;;;;25.59;62.75;101695.44;5028015;28;19913;-84
2022/07/03 05:50:44;;;;;;;;;;;;;;;25.60;63.08;101694.53;5034121;28;19999;-85
2022/07/03 05:53:09;;;;;;;;;;;;;;;25.58;62.60;101685.63;5034174;28;19958;-84
2022/07/03 05:55:34;;;;;;;;;;;;;;;25.60;62.93;101694.53;5033358;28;19909;-84
2022/07/03 05:58:00;;;;;;;;;;;;;;;25.62;62.80;101699.91;5020159;28;20286;-83
2022/07/03 06:00:25;;;;;;;;;;;;;;;25.67;62.60;101697.25;5017099;28;20403;-83
2022/07/03 06:02:51;;;;;;;;;;;;;;;25.71;62.47;101697.28;5037279;28;19909;-83
2022/07/03 06:05:16;;;;;;;;;;;;;;;25.74;62.50;101700.00;5038464;28;19913;-83
2022/07/03 06:07:42;;;;;;;;;;;;;;;25.66;62.54;101684.78;5046539;28;20445;-83
2022/07/03 06:10:07;;;;;;;;;;;;;;;25.75;62.11;101699.09;5050049;28;19919;-82
2022/07/03 06:12:33;;;;;;;;;;;;;;;25.78;62.48;101703.56;5052535;28;19909;-84
2022/07/03 06:14:58;;;;;;;;;;;;;;;25.75;62.11;101709.81;5034726;28;19909;-83
2022/07/03 06:17:36;;;;;;;;;;;;;;;25.80;62.55;101715.16;5032219;28;19913;-85
2022/07/03 06:20:08;;;;;;;;;;;;;;;25.80;62.11;101718.78;5047582;28;20341;-86
2022/07/03 06:22:34;;;;;;;;;;;;;;;25.76;62.80;101713.34;5034783;28;20273;-83
2022/07/03 06:25:02;;;;;;;;;;;;;;;25.81;62.41;101716.97;5017113;28;19913;-84
2022/07/03 06:27:31;;;;;;;;;;;;;;;25.82;62.50;101713.41;5051853;28;20489;-84
2022/07/03 06:29:59;;;;;;;;;;;;;;;25.83;62.32;101717.88;5034186;28;19919;-84
2022/07/03 06:32:25;;;;;;;;;;;;;;;25.78;62.55;101712.50;5027929;28;19909;-84
2022/07/03 06:34:50;;;;;;;;;;;;;;;25.82;62.64;101716.06;5045307;28;19912;-84
2022/07/03 06:37:15;;;;;;;;;;;;;;;25.80;62.82;101713.41;5033899;28;19920;-84
2022/07/03 06:39:41;;;;;;;;;;;;;;;25.74;62.82;101713.38;5030351;28;19913;-84
2022/07/03 06:42:09;;;;;;;;;;;;;;;25.80;62.86;101712.50;5027613;28;20012;-83
2022/07/03 06:44:34;;;;;;;;;;;;;;;25.81;62.63;101716.97;5028995;28;19935;-83
2022/07/03 06:47:04;;;;;;;;;;;;;;;25.85;62.37;101708.09;5045634;28;19908;-84
2022/07/03 06:49:31;;;;;;;;;;;;;;;25.86;62.98;101722.34;5032980;28;19913;-82
2022/07/03 06:51:57;;;;;;;;;;;;;;;25.76;62.98;101721.38;5017436;28;19909;-81
2022/07/03 06:54:22;;;;;;;;;;;;;;;25.81;62.85;101714.31;5045944;28;19919;-83
2022/07/03 06:56:48;;;;;;;;;;;;;;;25.85;62.95;101713.44;5025326;28;19913;-82
2022/07/03 06:59:13;;;;;;;;;;;;;;;25.84;63.25;101708.97;5048175;28;19931;-83
2022/07/03 07:01:39;;;;;;;;;;;;;;;25.88;62.36;101715.22;5051113;28;19912;-82
2022/07/03 07:04:04;;;;;;;;;;;;;;;25.87;63.08;101717.03;5050734;28;19936;-83
2022/07/03 07:06:29;;;;;;;;;;;;;;;25.83;62.90;101714.31;5035567;28;19916;-83
2022/07/03 07:08:55;;;;;;;;;;;;;;;25.87;62.90;101717.03;5025548;28;19916;-83
2022/07/03 07:11:21;;;;;;;;;;;;;;;25.87;62.59;101714.34;5059776;28;19920;-84
2022/07/03 07:13:46;;;;;;;;;;;;;;;25.86;62.85;101723.25;5028882;28;20326;-84
2022/07/03 07:16:11;;;;;;;;;;;;;;;25.90;62.88;101721.53;5023140;28;20005;-85
2022/07/03 07:18:39;;;;;;;;;;;;;;;25.88;63.05;101723.25;5043191;28;20368;-85
2022/07/03 07:21:06;;;;;;;;;;;;;;;25.90;63.00;101718.84;5054383;28;19985;-84
2022/07/03 07:23:31;;;;;;;;;;;;;;;25.85;62.88;101720.56;5018742;28;20360;-84
2022/07/03 07:25:57;;;;;;;;;;;;;;;25.93;62.95;101722.44;5049485;28;19913;-85
2022/07/03 07:28:22;;;;;;;;;;;;;;;25.91;62.73;101726.00;5050198;28;19916;-84
2022/07/03 07:30:47;;;;;;;;;;;;;;;25.91;63.04;101721.53;5051525;28;19923;-84
2022/07/03 07:33:13;;;;;;;;;;;;;;;25.89;63.70;101723.31;5044729;28;20314;-83
2022/07/03 07:36:04;;;;;;;;;;;;;;;25.87;63.08;101726.84;5052084;28;20366;-82
2022/07/03 07:38:29;;;;;;;;;;;;;;;25.89;63.03;101725.09;5065463;28;19917;-82
2022/07/03 07:41:01;;;;;;;;;;;;;;;25.81;63.44;101733.03;5032090;28;19953;-82
2022/07/03 07:43:45;;;;;;;;;;;;;;;25.89;63.33;101733.13;5056647;28;20015;-82
2022/07/03 07:46:10;;;;;;;;;;;;;;;25.75;63.25;101730.31;5043450;28;19913;-82
2022/07/03 07:51:42;;;;;;;;;;;;;;;25.88;62.86;101737.53;5050276;28;19971;-82
2022/07/03 07:54:13;;;;;;;;;;;;;;;25.90;62.71;101733.13;5060407;28;19916;-82
2022/07/03 07:56:56;;;;;;;;;;;;;;;25.84;62.75;101735.72;5050648;28;20003;-82
2022/07/03 08:05:42;;;;;;;;;;;;;;;25.89;62.53;101743.84;5048032;28;19970;-82
2022/07/03 08:08:22;;;;;;;;;;;;;;;25.89;62.55;101746.50;5053312;28;19921;-81
2022/07/03 08:10:48;;;;;;;;;;;;;;;25.89;62.59;101752.75;5051096;28;20284;-81
2022/07/03 08:13:32;;;;;;;;;;;;;;;25.90;62.52;101742.94;5038056;28;20513;-81
2022/07/03 08:16:22;;;;;;;;;;;;;;;25.91;62.56;101748.31;5050752;28;19908;-81
2022/07/03 08:18:48;;;;;;;;;;;;;;;25.87;62.71;101748.25;5041536;28;20122;-81
2022/07/03 08:21:16;;;;;;;;;;;;;;;25.87;62.77;101756.28;5046014;28;20413;-81
2022/07/03 08:23:55;;;;;;;;;;;;;;;;;;;;;
2022/07/03 08:26:21;;;;;;;;;;;;;;;25.88;62.76;101750.91;5034674;28;19919;-81
2022/07/03 08:28:46;;;;;;;;;;;;;;;25.88;62.57;101763.41;5055110;28;19991;-81
2022/07/03 08:31:12;;;;;;;;;;;;;;;25.90;62.73;101761.66;5052043;28;19982;-80
2022/07/03 08:33:37;;;;;;;;;;;;;;;25.85;62.76;101758.03;5050000;28;19913;-80
2022/07/03 08:36:04;;;;;;;;;;;;;;;25.87;62.89;101750.94;5033240;28;19908;-81
2022/07/03 08:38:33;;;;;;;;;;;;;;;25.88;62.82;101747.34;5057003;28;20019;-80
2022/07/03 08:40:59;;;;;;;;;;;;;;;25.87;62.81;101756.28;5045050;28;19912;-81
2022/07/03 08:43:25;;;;;;;;;;;;;;;25.88;62.53;101745.56;5028702;28;19917;-81
2022/07/03 08:45:53;;;;;;;;;;;;;;;25.88;62.72;101760.72;5045408;28;20366;-80
2022/07/03 08:48:19;;;;;;;;;;;;;;;25.90;62.70;101751.84;5027891;28;20007;-80
2022/07/03 08:50:45;;;;;;;;;;;;;;;25.94;62.46;101759.00;5031161;28;20016;-81
2022/07/03 08:53:10;;;;;;;;;;;;;;;25.90;62.58;101764.34;5044442;28;19955;-81
2022/07/03 08:55:36;;;;;;;;;;;;;;;25.89;62.64;101755.44;5051908;28;19939;-81
2022/07/03 08:58:01;;;;;;;;;;;;;;;25.90;62.73;101761.66;5050388;28;20427;-81
2022/07/03 09:00:31;;;;;;;;;;;;;;;25.92;62.46;101752.75;5050552;28;19913;-80
2022/07/03 09:02:59;;;;;;;;;;;;;;;25.91;62.69;101755.44;5032215;28;20387;-81
2022/07/03 09:05:32;;;;;;;;;;;;;;;25.92;62.50;101759.91;5013799;28;19912;-80
2022/07/03 09:08:12;;;;;;;;;;;;;;;25.93;62.38;101769.69;5037424;28;19971;-81
2022/07/03 09:10:39;;;;;;;;;;;;;;;25.91;62.50;101759.00;5048641;28;19913;-80
2022/07/03 09:13:24;;;;;;;;;;;;;;;25.94;62.42;101763.47;5044336;28;20003;-81
2022/07/03 09:15:50;;;;;;;;;;;;;;;25.94;62.31;101771.50;5056608;28;20394;-81
2022/07/03 09:18:59;;;;;;;;;;;;;;;25.96;62.28;101764.38;5028773;28;20379;-81
2022/07/03 09:25:08;;;;;;;;;;;;;;;25.97;62.41;101766.16;5045845;28;20445;-80
2022/07/03 09:27:33;;;;;;;;;;;;;;;25.93;62.34;101762.59;5028327;28;20295;-80
2022/07/03 09:29:59;;;;;;;;;;;;;;;25.93;62.43;101753.63;5048924;28;19912;-81
2022/07/03 09:32:25;;;;;;;;;;;;;;;25.96;62.41;101757.25;5055030;28;19913;-83
2022/07/03 09:35:09;;;;;;;;;;;;;;;25.99;62.06;101759.97;5016152;28;19959;-81
2022/07/03 09:37:34;;;;;;;;;;;;;;;25.99;62.31;101759.97;5040529;28;19962;-82
2022/07/03 09:40:00;;;;;;;;;;;;;;;25.92;62.21;101760.78;5052288;28;19968;-82
2022/07/03 09:42:40;;;;;;;;;;;;;;;25.97;62.57;101764.41;5052813;28;19915;-82
2022/07/03 09:45:22;;;;;;;;;;;;;;;25.98;62.53;101758.16;5027178;28;19948;-82
2022/07/03 09:47:47;;;;;;;;;;;;;;;25.97;62.59;101760.81;5052412;28;20312;-81
2022/07/03 09:50:13;;;;;;;;;;;;;;;26.00;62.47;101760.84;5053450;28;19920;-82
2022/07/03 09:52:39;;;;;;;;;;;;;;;26.00;62.31;101758.16;5007583;28;19909;-82
2022/07/03 09:55:10;;;;;;;;;;;;;;;25.96;62.54;101759.03;5044958;28;19962;-81
2022/07/03 09:57:38;;;;;;;;;;;;;;;25.98;62.36;101759.94;5048014;28;19924;-82
2022/07/03 10:00:20;;;;;;;;;;;;;;;25.96;62.76;101757.25;5034986;28;19908;-81
2022/07/03 10:03:05;;;;;;;;;;;;;;;26.03;62.72;101743.91;5053204;28;20318;-88
2022/07/03 10:05:34;;;;;;;;;;;;;;;26.08;62.54;101753.75;5033336;28;19912;-81
2022/07/03 10:08:01;;;;;;;;;;;;;;;26.10;62.51;101753.75;5033131;28;20364;-82
2022/07/03 10:10:27;;;;;;;;;;;;;;;26.09;62.54;101749.28;5035006;28;19923;-81
2022/07/03 10:12:53;;;;;;;;;;;;;;;26.10;62.15;101745.72;5034827;28;19962;-81
2022/07/03 10:15:19;;;;;;;;;;;;;;;26.08;62.55;101752.88;5055039;28;19917;-81
2022/07/03 10:17:47;;;;;;;;;;;;;;;26.07;62.75;101743.03;5052759;28;20323;-80
2022/07/03 10:20:13;;;;;;;;;;;;;;;26.09;62.45;101743.94;5033793;28;20420;-81
2022/07/03 10:22:38;;;;;;;;;;;;;;;26.08;62.42;101743.06;5039402;28;19916;-82
2022/07/03 10:25:04;;;;;;;;;;;;;;;26.08;62.64;101739.50;5032534;28;20038;-80
2022/07/03 10:27:30;;;;;;;;;;;;;;;26.07;62.79;101735.00;5031499;28;19943;-81
2022/07/03 10:29:58;;;;;;;;;;;;;;;26.08;62.47;101731.47;5046194;28;20567;-81
2022/07/03 10:32:24;;;;;;;;;;;;;;;26.05;62.52;101737.66;5033548;28;19999;-82
2022/07/03 10:34:49;;;;;;;;;;;;;;;26.07;62.21;101735.88;5026912;28;20055;-81
2022/07/03 10:37:15;;;;;;;;;;;;;;;26.07;62.34;101735.88;5047237;28;20003;-81
2022/07/03 10:39:44;;;;;;;;;;;;;;;26.06;62.60;101734.13;5030494;28;20025;-81
2022/07/03 10:45:07;;;;;;;;;;;;;;;26.12;62.27;101725.19;5048709;28;19946;-81
2022/07/03 10:47:40;;;;;;;;;;;;;;;26.13;62.08;101724.31;5040957;28;19909;-85
2022/07/03 10:50:07;;;;;;;;;;;;;;;26.11;62.63;101726.09;5037093;28;19916;-81
2022/07/03 10:52:32;;;;;;;;;;;;;;;26.20;61.69;101731.50;5040889;28;19916;-80
2022/07/03 10:54:59;;;;;;;;;;;;;;;26.18;62.22;101725.22;5052616;28;19909;-80
2022/07/03 10:57:25;;;;;;;;;;;;;;;26.14;62.15;101724.34;5052175;28;19908;-81
2022/07/03 10:59:51;;;;;;;;;;;;;;;26.19;61.79;101724.34;5030558;28;20007;-81
2022/07/03 11:02:31;;;;;;;;;;;;;;;26.20;61.92;101724.38;5051827;28;20011;-81
2022/07/03 11:04:57;;;;;;;;;;;;;;;26.18;62.22;101723.47;5048116;28;19909;-80
2022/07/03 11:07:23;;;;;;;;;;;;;;;26.13;62.08;101718.97;5060507;28;19931;-80
2022/07/03 11:10:09;;;;;;;;;;;;;;;26.23;61.96;101730.63;5033098;28;20007;-80
2022/07/03 11:12:53;;;;;;;;;;;;;;;26.18;62.11;101719.88;5046484;28;19909;-80
2022/07/03 11:15:33;;;;;;;;;;;;;;;26.23;62.08;101712.78;5051649;28;19912;-79
2022/07/03 11:18:05;;;;;;;;;;;;;;;26.23;62.14;101703.84;5032623;28;19920;-80
2022/07/03 11:20:34;;;;;;;;;;;;;;;26.24;61.79;101702.94;5051618;28;20376;-79
2022/07/03 11:23:02;;;;;;;;;;;;;;;26.23;61.67;101703.84;5047221;28;19963;-81
2022/07/03 11:25:27;;;;;;;;;;;;;;;26.18;61.88;101699.38;5014158;28;19916;-80
2022/07/03 11:27:53;;;;;;;;;;;;;;;26.19;61.67;101693.13;5055531;28;19908;-79
2022/07/03 11:30:18;;;;;;;;;;;;;;;26.20;61.82;101702.03;5033893;28;19919;-81
2022/07/03 11:32:57;;;;;;;;;;;;;;;26.24;61.41;101693.13;5032688;28;19908;-81
2022/07/03 11:35:41;;;;;;;;;;;;;;;26.27;61.39;101694.91;5034335;28;20007;-80
2022/07/03 11:38:06;;;;;;;;;;;;;;;26.25;61.05;101699.41;5050741;28;21480;-81
2022/07/03 11:40:32;;;;;;;;;;;;;;;26.24;61.32;101690.44;5035021;28;19912;-80
2022/07/03 11:42:57;;;;;;;;;;;;;;;26.29;61.02;101688.72;5032107;28;19912;-80
2022/07/03 11:45:24;;;;;;;;;;;;;;;26.26;61.33;101687.78;5036600;28;20257;-80
2022/07/03 11:47:49;;;;;;;;;;;;;;;26.28;61.05;101692.25;5033398;28;19908;-79
2022/07/03 11:50:15;;;;;;;;;;;;;;;26.28;61.28;101688.69;5036389;28;20027;-80
2022/07/03 11:52:40;;;;;;;;;;;;;;;26.32;60.89;101696.72;5053577;28;20431;-81
2022/07/03 11:55:06;;;;;;;;;;;;;;;26.34;60.56;101686.03;5050763;28;19920;-80
2022/07/03 11:57:31;;;;;;;;;;;;;;;26.35;60.59;101694.09;5047339;28;20368;-79
2022/07/03 12:00:04;;;;;;;;;;;;;;;26.34;60.96;101696.75;5027323;28;19913;-80
2022/07/03 12:02:29;;;;;;;;;;;;;;;26.33;61.04;101693.19;5050748;28;19912;-79
2022/07/03 12:04:54;;;;;;;;;;;;;;;26.37;60.71;101700.34;5032200;28;19919;-79
2022/07/03 12:07:20;;;;;;;;;;;;;;;26.34;60.69;101688.72;5033538;28;20371;-81
2022/07/03 12:09:45;;;;;;;;;;;;;;;26.36;60.43;101695.84;5016715;28;19914;-81
2022/07/03 12:12:11;;;;;;;;;;;;;;;26.38;60.54;101690.53;5033229;28;19999;-80
2022/07/03 12:14:37;;;;;;;;;;;;;;;26.37;60.78;101689.63;5050989;28;19955;-80
2022/07/03 12:17:03;;;;;;;;;;;;;;;26.34;60.74;101694.06;5048921;28;19943;-80
2022/07/03 12:19:29;;;;;;;;;;;;;;;26.37;60.69;101695.00;5042259;28;19909;-80
2022/07/03 12:21:54;;;;;;;;;;;;;;;26.40;60.28;101694.09;5049676;28;20318;-81
2022/07/03 12:24:19;;;;;;;;;;;;;;;26.42;60.32;101695.00;5050113;28;19948;-81
2022/07/03 12:26:45;;;;;;;;;;;;;;;26.41;60.44;101693.19;5032405;28;20296;-81
2022/07/03 12:29:12;;;;;;;;;;;;;;;26.40;60.89;101684.28;5049015;28;19908;-81
2022/07/03 12:31:45;;;;;;;;;;;;;;;26.40;60.69;101681.59;5032841;28;19913;-81
2022/07/03 12:34:11;;;;;;;;;;;;;;;26.43;60.67;101695.88;5032505;28;20427;-81
2022/07/03 12:36:36;;;;;;;;;;;;;;;26.41;60.62;101683.38;5036816;28;19995;-81
2022/07/03 12:39:02;;;;;;;;;;;;;;;26.44;60.76;101689.63;5049678;28;19917;-80
2022/07/03 12:41:27;;;;;;;;;;;;;;;26.43;60.40;101682.50;5049145;28;19915;-81
2022/07/03 12:43:53;;;;;;;;;;;;;;;26.43;60.50;101679.81;5064598;28;19962;-80
2022/07/03 12:46:26;;;;;;;;;;;;;;;26.47;60.11;101685.19;5054985;28;19962;-80
2022/07/03 12:48:56;;;;;;;;;;;;;;;26.45;60.23;101683.38;5057783;28;19953;-81
2022/07/03 12:51:41;;;;;;;;;;;;;;;26.42;60.62;101681.59;5030876;28;19917;-80
2022/07/03 12:54:11;;;;;;;;;;;;;;;26.41;60.91;101672.66;5050417;28;19916;-81
2022/07/03 12:56:36;;;;;;;;;;;;;;;26.39;60.75;101669.09;5036477;28;19909;-81
2022/07/03 12:59:17;;;;;;;;;;;;;;;26.40;60.63;101673.56;5059069;28;19962;-81